createdAt,value
2023-03-26T00:00:23.268Z,26.04
2023-03-26T00:56:35.283Z,25.85
2023-03-26T01:00:36.227Z,25.86
2023-03-26T01:04:36.577Z,25.88
2023-03-26T01:08:36.543Z,25.83
2023-03-26T01:12:36.832Z,25.90
2023-03-26T01:16:36.728Z,25.82
2023-03-26T01:20:36.700Z,25.83
2023-03-26T01:24:36.660Z,25.80
2023-03-26T01:28:36.643Z,25.82
2023-03-26T01:32:36.651Z,25.79
2023-03-26T01:36:36.533Z,25.81
2023-03-26T01:40:36.589Z,25.79
2023-03-26T01:44:36.580Z,25.79
2023-03-26T01:48:36.527Z,25.82
2023-03-26T01:52:36.498Z,25.82
2023-03-26T01:56:36.486Z,25.75
2023-03-26T02:00:36.720Z,25.79
2023-03-26T02:04:36.366Z,25.78
2023-03-26T02:08:36.566Z,25.74
2023-03-26T02:12:36.524Z,25.78
2023-03-26T02:16:36.554Z,25.74
2023-03-26T02:20:36.455Z,25.73
2023-03-26T02:24:37.240Z,25.73
2023-03-26T02:28:36.370Z,25.74
2023-03-26T02:32:36.379Z,25.71
2023-03-26T02:36:36.529Z,25.75
2023-03-26T02:40:36.431Z,25.71
2023-03-26T02:44:36.382Z,25.73
2023-03-26T02:48:36.380Z,25.70
2023-03-26T02:52:36.300Z,25.74
2023-03-26T02:56:36.284Z,25.71
2023-03-26T03:00:36.233Z,25.71
2023-03-26T03:04:36.410Z,25.66
2023-03-26T03:08:36.365Z,25.69
2023-03-26T03:12:36.312Z,25.66
2023-03-26T03:16:36.279Z,25.70
2023-03-26T03:20:36.276Z,25.69
2023-03-26T03:24:36.202Z,25.67
2023-03-26T03:28:36.158Z,25.63
2023-03-26T03:32:36.238Z,25.69
2023-03-26T03:36:36.204Z,25.66
2023-03-26T03:40:36.151Z,25.66
2023-03-26T03:44:36.112Z,25.63
2023-03-26T03:48:36.245Z,25.65
2023-03-26T03:52:36.054Z,25.62
2023-03-26T03:56:36.101Z,25.59
2023-03-26T04:00:36.074Z,25.59
2023-03-26T04:04:36.319Z,25.54
2023-03-26T04:08:36.278Z,25.57
2023-03-26T04:12:36.230Z,25.53
2023-03-26T04:16:36.614Z,25.53
2023-03-26T04:20:36.152Z,25.49
2023-03-26T04:24:36.144Z,25.50
2023-03-26T04:28:36.070Z,25.54
2023-03-26T04:32:36.170Z,25.54
2023-03-26T04:36:36.332Z,25.54
2023-03-26T04:40:36.583Z,25.53
2023-03-26T04:44:36.772Z,25.49
2023-03-26T04:48:36.975Z,25.49
2023-03-26T04:52:37.218Z,25.49
2023-03-26T04:56:37.493Z,25.49
2023-03-26T05:00:37.364Z,25.48
2023-03-26T05:04:38.463Z,25.46
2023-03-26T05:08:37.280Z,25.46
2023-03-26T05:12:37.541Z,25.50
2023-03-26T05:16:37.494Z,25.46
2023-03-26T05:20:37.417Z,25.48
2023-03-26T05:24:37.371Z,25.49
2023-03-26T05:28:38.436Z,25.47
2023-03-26T05:32:37.407Z,25.44
2023-03-26T05:36:37.416Z,25.43
2023-03-26T05:40:37.363Z,25.45
2023-03-26T05:44:37.382Z,25.42
2023-03-26T05:48:37.288Z,25.42
2023-03-26T05:52:37.252Z,25.38
2023-03-26T05:56:37.245Z,25.39
2023-03-26T06:00:37.206Z,25.39
2023-03-26T06:04:37.435Z,25.38
2023-03-26T06:08:37.283Z,25.34
2023-03-26T06:12:37.811Z,25.41
2023-03-26T06:16:37.392Z,25.38
2023-03-26T06:20:37.161Z,25.39
2023-03-26T06:24:37.126Z,25.37
2023-03-26T06:28:37.149Z,25.42
2023-03-26T06:32:37.129Z,25.33
2023-03-26T06:36:37.010Z,25.35
2023-03-26T06:40:37.176Z,25.37
2023-03-26T06:44:38.455Z,25.33
2023-03-26T06:48:37.606Z,25.35
2023-03-26T06:52:37.812Z,25.31
2023-03-26T06:56:38.058Z,25.31
2023-03-26T07:00:38.535Z,25.30
2023-03-26T07:04:38.494Z,25.27
2023-03-26T07:08:38.663Z,25.29
2023-03-26T07:12:38.843Z,25.29
2023-03-26T07:16:39.056Z,25.26
2023-03-26T07:20:39.507Z,25.27
2023-03-26T07:24:39.480Z,25.25
2023-03-26T07:28:39.638Z,25.26
2023-03-26T07:32:39.873Z,25.26
2023-03-26T07:36:40.044Z,25.20
2023-03-26T07:40:40.168Z,25.21
2023-03-26T07:44:40.359Z,25.18
2023-03-26T07:48:40.517Z,25.17
2023-03-26T07:52:40.874Z,25.17
2023-03-26T07:56:40.841Z,25.10
2023-03-26T08:00:40.844Z,25.12
2023-03-26T08:04:41.069Z,25.12
2023-03-26T08:08:42.203Z,25.08
2023-03-26T08:12:41.197Z,25.13
2023-03-26T08:16:41.310Z,25.10
2023-03-26T08:20:41.420Z,25.04
2023-03-26T08:24:41.566Z,25.06
2023-03-26T08:28:41.880Z,25.10
2023-03-26T08:32:41.825Z,25.06
2023-03-26T08:36:41.847Z,25.08
2023-03-26T08:40:41.977Z,25.12
2023-03-26T08:44:42.040Z,25.10
2023-03-26T08:48:42.152Z,25.20
2023-03-26T08:52:42.322Z,25.17
2023-03-26T08:56:42.489Z,25.16
2023-03-26T09:00:42.578Z,25.18
2023-03-26T09:04:42.723Z,25.16
2023-03-26T09:08:53.905Z,25.20
2023-03-26T09:12:42.846Z,25.20
2023-03-26T09:16:42.862Z,25.21
2023-03-26T09:20:42.747Z,25.21
2023-03-26T09:24:42.716Z,25.17
2023-03-26T09:28:42.697Z,25.21
2023-03-26T09:32:42.697Z,25.25
2023-03-26T09:36:42.607Z,25.22
2023-03-26T09:40:42.564Z,25.25
2023-03-26T09:44:42.558Z,25.25
2023-03-26T09:48:42.637Z,25.22
2023-03-26T09:52:42.779Z,25.21
2023-03-26T09:56:43.428Z,25.27
2023-03-26T10:00:43.142Z,25.27
2023-03-26T10:04:43.274Z,25.23
2023-03-26T10:08:43.413Z,25.25
2023-03-26T10:12:43.533Z,25.24
2023-03-26T10:16:43.708Z,25.23
2023-03-26T10:20:43.786Z,25.25
2023-03-26T10:24:43.909Z,25.26
2023-03-26T10:28:44.015Z,25.26
2023-03-26T10:32:44.193Z,25.30
2023-03-26T10:40:43.377Z,25.27
2023-03-26T10:48:43.634Z,25.23
2023-03-26T10:56:43.960Z,25.27
2023-03-26T11:04:44.196Z,25.30
2023-03-26T11:12:44.610Z,25.27
2023-03-26T11:20:44.764Z,25.31
2023-03-26T11:29:03.737Z,25.30
2023-03-26T11:36:44.963Z,25.27
2023-03-26T11:44:44.860Z,25.26
2023-03-26T11:52:46.871Z,25.28
2023-03-26T12:00:44.770Z,25.33
2023-03-26T12:08:45.033Z,25.34
2023-03-26T18:33:00.728Z,25.51
2023-03-26T22:49:11.280Z,25.58
2023-03-26T22:53:12.439Z,25.58
2023-03-26T22:57:12.652Z,25.62
2023-03-26T23:01:12.792Z,25.55
